Terminal Aerodrome Forecast
Issued by NWS

Home | Current Version | Previous Version | Text Only | Print | Product List | Glossary On
Versions: 1 2 3 4 5 6 7 8 9 10 11 12
000
FTUS46 KMTR 240523
TAFOAK
TAF
KOAK 240523Z 2406/2512 30012KT P6SM FEW010 SCT250
     FM240800 32004KT P6SM FEW010 SCT250
     FM241500 30005KT P6SM FEW010
     FM242100 29012KT P6SM SKC
     FM250300 29010KT P6SM FEW010
     FM250400 29008KT P6SM BKN010=

USA.gov is the U.S. government's official web portal to all federal, state and local government web resources and services.